Time;durP1;ratioP1;P1;durP2;ratioP2;P2;SDS_P1;SDS_P2;PMS_P1;PMS_P2;Temp;Humidity;BMP_temperature;BMP_pressure;BME280_temperature;BME280_humidity;BME280_pressure;Samples;Min_cycle;Max_cycle;Signal;HPM_P1;HPM_P2
2023/12/21 00:00:24;;;;;;;8.10;6.20;;;;;;;3.13;98.65;96959.45;106347;1284;22534;-76
2023/12/21 00:03:12;;;;;;;9.00;6.20;;;;;;;3.09;98.71;96958.77;106338;1281;24237;-77
2023/12/21 00:05:40;;;;;;;9.10;7.40;;;;;;;3.11;99.04;96956.54;107097;1278;22533;-77
2023/12/21 00:08:08;;;;;;;7.50;6.20;;;;;;;3.08;98.49;96964.46;106372;1280;25291;-77
2023/12/21 00:10:36;;;;;;;9.00;6.90;;;;;;;3.05;98.11;96956.98;106685;1280;22543;-79
2023/12/21 00:13:04;;;;;;;9.10;6.60;;;;;;;3.02;98.68;96957.52;106626;1284;25343;-77
2023/12/21 00:15:32;;;;;;;7.80;5.30;;;;;;;3.01;98.93;96956.73;106732;1268;22580;-77
2023/12/21 00:18:00;;;;;;;9.00;6.10;;;;;;;3.00;98.78;96948.75;106357;1280;25441;-77
2023/12/21 00:20:28;;;;;;;8.00;6.80;;;;;;;2.99;98.99;96933.22;106317;1277;25517;-77
2023/12/21 00:22:56;;;;;;;7.20;5.90;;;;;;;2.94;98.63;96925.24;106703;1283;22614;-77
2023/12/21 00:25:24;;;;;;;8.30;5.90;;;;;;;2.94;98.88;96924.02;106361;1273;22547;-77
2023/12/21 00:27:52;;;;;;;8.10;6.30;;;;;;;2.96;99.30;96918.65;106287;1269;24234;-79
2023/12/21 00:30:20;;;;;;;7.70;6.20;;;;;;;2.98;98.94;96919.86;106709;1277;24392;-78
2023/12/21 00:32:48;;;;;;;7.70;6.50;;;;;;;2.97;98.37;96916.73;106625;1283;22748;-77
2023/12/21 00:35:16;;;;;;;7.40;5.90;;;;;;;2.95;98.67;96918.44;106368;1271;22559;-78
2023/12/21 00:37:44;;;;;;;7.60;5.70;;;;;;;2.97;99.26;96910.66;106693;1274;24266;-78
2023/12/21 00:40:13;;;;;;;8.50;6.70;;;;;;;2.98;99.13;96906.77;106717;1284;24198;-78
2023/12/21 00:42:42;;;;;;;10.20;6.00;;;;;;;2.97;99.29;96905.42;106593;1283;22575;-78
2023/12/21 00:45:10;;;;;;;7.30;5.40;;;;;;;2.95;98.99;96901.73;106228;1265;22536;-77
2023/12/21 00:47:38;;;;;;;8.20;5.80;;;;;;;2.94;99.02;96900.77;106713;1281;22540;-78
2023/12/21 00:50:06;;;;;;;7.10;6.00;;;;;;;2.95;99.39;96903.48;106251;1265;22544;-79
2023/12/21 00:52:36;;;;;;;8.90;6.60;;;;;;;2.96;99.49;96908.27;106766;1271;22573;-79
2023/12/21 00:55:05;;;;;;;7.70;6.30;;;;;;;2.94;99.33;96900.35;106690;1272;22543;-78
2023/12/21 00:57:32;;;;;;;7.60;5.30;;;;;;;2.88;98.97;96894.64;106662;1281;22534;-78
2023/12/21 01:00:00;;;;;;;7.70;5.70;;;;;;;2.86;99.12;96897.36;106737;1271;22654;-79
2023/12/21 01:02:28;;;;;;;9.10;5.60;;;;;;;2.86;99.60;96903.41;106761;1280;22729;-80
2023/12/21 01:04:56;;;;;;;7.10;5.80;;;;;;;2.83;99.54;96902.41;106804;1275;22582;-77
2023/12/21 01:07:24;;;;;;;8.40;6.90;;;;;;;2.80;99.21;96904.03;106439;1280;25316;-78
2023/12/21 01:09:52;;;;;;;9.60;6.70;;;;;;;2.78;99.64;96900.73;106343;1283;25472;-78
2023/12/21 01:12:20;;;;;;;8.90;5.60;;;;;;;2.81;99.92;96903.86;106551;1284;25386;-77
2023/12/21 01:14:48;;;;;;;9.20;6.10;;;;;;;2.83;99.85;96901.63;106214;1265;25612;-78
2023/12/21 01:17:16;;;;;;;9.10;6.20;;;;;;;2.81;99.65;96898.23;106186;1273;23145;-76
2023/12/21 01:19:44;;;;;;;7.30;6.40;;;;;;;2.79;99.76;96893.60;106193;1269;23897;-78
2023/12/21 01:22:12;;;;;;;8.20;5.90;;;;;;;2.79;100.00;96894.36;106759;1269;22572;-77
2023/12/21 01:24:40;;;;;;;7.70;6.50;;;;;;;2.83;99.95;96898.86;106332;1271;22537;-77
2023/12/21 01:27:08;;;;;;;8.90;6.70;;;;;;;2.84;99.98;96889.01;106320;1273;22537;-77
2023/12/21 01:29:52;;;;;;;8.40;6.90;;;;;;;2.84;99.94;96885.55;106344;1268;22540;-78
2023/12/21 01:32:20;;;;;;;8.00;6.80;;;;;;;2.81;100.00;96881.73;106349;1279;22550;-77
2023/12/21 01:34:48;;;;;;;8.30;6.20;;;;;;;2.82;99.98;96875.81;106328;1279;25393;-80
2023/12/21 01:37:16;;;;;;;9.60;6.60;;;;;;;2.85;100.00;96873.15;106195;1280;23846;-77
2023/12/21 01:39:44;;;;;;;8.20;6.50;;;;;;;2.86;100.00;96867.02;106279;1283;25409;-77
2023/12/21 01:42:12;;;;;;;8.20;5.80;;;;;;;2.85;99.98;96862.66;106304;1269;22551;-76
2023/12/21 01:44:40;;;;;;;9.10;6.70;;;;;;;2.85;100.00;96859.37;106305;1268;25640;-78
2023/12/21 01:47:09;;;;;;;9.30;7.20;;;;;;;2.85;100.00;96857.61;106275;1279;22541;-76
2023/12/21 01:49:38;;;;;;;9.50;6.80;;;;;;;2.87;100.00;96859.41;106479;1271;22564;-77
2023/12/21 01:52:08;;;;;;;9.40;6.90;;;;;;;2.87;100.00;96858.18;106760;1284;22684;-77
2023/12/21 01:54:36;;;;;;;7.20;5.90;;;;;;;2.86;99.98;96858.40;106409;1283;25263;-77
2023/12/21 01:57:05;;;;;;;6.80;5.50;;;;;;;2.87;100.00;96858.50;106484;1283;24228;-76
2023/12/21 01:59:34;;;;;;;6.40;5.60;;;;;;;2.91;100.00;96856.20;106312;1274;22550;-78
2023/12/21 02:02:02;;;;;;;7.70;6.00;;;;;;;2.90;100.00;96852.73;106544;1281;23504;-77
2023/12/21 02:04:30;;;;;;;6.50;5.80;;;;;;;2.91;100.00;96851.35;106609;1281;23186;-78
2023/12/21 02:06:59;;;;;;;6.60;5.90;;;;;;;2.89;100.00;96855.04;106780;1276;23151;-76
2023/12/21 02:09:27;;;;;;;6.20;4.90;;;;;;;2.96;100.00;96848.66;106394;1271;22542;-76
2023/12/21 02:11:54;;;;;;;6.60;5.00;;;;;;;2.98;100.00;96837.30;106359;1275;22628;-77
2023/12/21 02:14:26;;;;;;;7.00;5.50;;;;;;;2.99;100.00;96831.25;106367;1281;23178;-76
2023/12/21 02:16:59;;;;;;;6.30;5.30;;;;;;;3.01;100.00;96826.40;106336;1281;24592;-77
2023/12/21 02:19:27;;;;;;;7.00;5.30;;;;;;;3.04;100.00;96821.70;106261;1284;25327;-77
2023/12/21 02:21:59;;;;;;;6.70;5.60;;;;;;;3.07;100.00;96816.92;106205;1274;22565;-75
2023/12/21 02:24:30;;;;;;;7.00;5.50;;;;;;;3.07;100.00;96815.66;106345;1275;22549;-76
2023/12/21 02:26:59;;;;;;;7.90;6.10;;;;;;;3.10;100.00;96817.49;106267;1283;24274;-76
2023/12/21 02:29:27;;;;;;;7.00;5.40;;;;;;;3.10;100.00;96813.71;106263;1271;22545;-76
2023/12/21 02:31:55;;;;;;;7.90;5.50;;;;;;;3.14;100.00;96809.20;106273;1270;24283;-76
2023/12/21 02:34:23;;;;;;;7.70;6.30;;;;;;;3.15;100.00;96809.63;106279;1283;25439;-76
2023/12/21 02:36:52;;;;;;;7.80;5.80;;;;;;;3.11;100.00;96802.80;106217;1281;24420;-76
2023/12/21 02:39:20;;;;;;;7.70;6.20;;;;;;;3.13;100.00;96796.70;106268;1267;24282;-77
2023/12/21 02:41:52;;;;;;;5.90;4.20;;;;;;;3.16;100.00;96798.45;106254;1281;24281;-76
2023/12/21 02:44:20;;;;;;;6.30;5.10;;;;;;;3.21;99.98;96796.40;106288;1271;22603;-76
2023/12/21 02:46:48;;;;;;;4.90;4.40;;;;;;;3.21;99.84;96789.89;106271;1275;25428;-76
2023/12/21 02:49:16;;;;;;;5.70;4.60;;;;;;;3.20;99.97;96784.09;106339;1277;22565;-76
2023/12/21 02:51:44;;;;;;;5.60;4.40;;;;;;;3.22;99.98;96774.13;106220;1283;22547;-76
2023/12/21 02:54:12;;;;;;;6.30;4.90;;;;;;;3.23;99.99;96772.67;106241;1268;22546;-76
2023/12/21 02:56:41;;;;;;;5.60;4.90;;;;;;;3.23;99.86;96764.48;106237;1270;25445;-76
2023/12/21 02:59:08;;;;;;;8.00;4.90;;;;;;;3.23;99.45;96754.80;106251;1276;24282;-76
2023/12/21 03:01:42;;;;;;;7.10;5.10;;;;;;;3.24;99.80;96749.73;106206;1267;25391;-76
2023/12/21 03:04:12;;;;;;;6.50;4.90;;;;;;;3.24;99.72;96749.09;106313;1272;22536;-76
2023/12/21 03:06:40;;;;;;;6.70;5.20;;;;;;;3.24;99.68;96741.73;106363;1275;23624;-77
2023/12/21 03:09:09;;;;;;;5.80;4.30;;;;;;;3.22;99.16;96743.93;106293;1270;22536;-77
2023/12/21 03:11:37;;;;;;;6.50;4.30;;;;;;;3.22;99.28;96739.68;106802;1284;24349;-75
2023/12/21 03:14:05;;;;;;;6.40;4.80;;;;;;;3.25;99.64;96735.83;106443;1271;22900;-76
2023/12/21 03:16:33;;;;;;;6.10;5.20;;;;;;;3.26;99.56;96729.05;106360;1281;22866;-76
2023/12/21 03:19:02;;;;;;;6.10;4.80;;;;;;;3.24;99.34;96724.02;106259;1284;24377;-76
2023/12/21 03:21:30;;;;;;;7.90;5.20;;;;;;;3.20;99.33;96718.02;106287;1275;24299;-77
2023/12/21 03:23:58;;;;;;;6.90;5.50;;;;;;;3.20;99.39;96712.69;106281;1273;24260;-77
2023/12/21 03:26:26;;;;;;;7.20;5.60;;;;;;;3.22;99.42;96706.20;106214;1269;24400;-77
2023/12/21 03:28:54;;;;;;;8.00;5.50;;;;;;;3.20;99.53;96695.83;106318;1272;23959;-78
2023/12/21 03:31:21;;;;;;;7.50;4.60;;;;;;;3.20;99.31;96699.87;106301;1274;24334;-77
2023/12/21 03:33:49;;;;;;;7.40;4.70;;;;;;;3.22;98.85;96698.30;106390;1283;24253;-76
2023/12/21 03:36:18;;;;;;;7.30;4.80;;;;;;;3.22;99.21;96692.08;106276;1272;23910;-77
2023/12/21 03:38:45;;;;;;;6.50;4.50;;;;;;;3.25;99.32;96683.27;106693;1281;23483;-76
2023/12/21 03:41:13;;;;;;;6.20;4.70;;;;;;;3.25;99.21;96670.80;106190;1269;25345;-77
2023/12/21 03:43:41;;;;;;;8.20;5.60;;;;;;;3.25;98.68;96660.27;106253;1283;24234;-77
2023/12/21 03:46:09;;;;;;;6.00;4.70;;;;;;;3.26;98.25;96656.70;106295;1280;23004;-79
2023/12/21 03:48:38;;;;;;;5.40;4.50;;;;;;;3.26;98.94;96654.50;106351;1281;24280;-77
2023/12/21 03:51:06;;;;;;;4.40;3.80;;;;;;;3.26;98.98;96648.00;106377;1271;25296;-75
2023/12/21 03:53:34;;;;;;;5.40;4.80;;;;;;;3.25;98.75;96643.13;106337;1284;22540;-77
2023/12/21 03:56:02;;;;;;;5.70;4.40;;;;;;;3.20;98.53;96644.93;106712;1283;24369;-77
2023/12/21 03:58:30;;;;;;;4.40;4.00;;;;;;;3.20;98.85;96635.18;106276;1273;23150;-76
2023/12/21 04:00:58;;;;;;;4.10;3.60;;;;;;;3.23;99.07;96629.25;106601;1283;22668;-76
2023/12/21 04:03:26;;;;;;;6.50;4.60;;;;;;;3.21;99.00;96618.67;106270;1274;25281;-76
2023/12/21 04:05:54;;;;;;;5.70;4.40;;;;;;;3.18;98.62;96615.83;106371;1283;22587;-77
2023/12/21 04:08:23;;;;;;;5.50;4.50;;;;;;;3.14;98.44;96610.48;106315;1281;22563;-77
2023/12/21 04:10:50;;;;;;;5.30;4.30;;;;;;;3.14;98.78;96610.87;106325;1275;25499;-78
2023/12/21 04:13:18;;;;;;;4.90;4.20;;;;;;;3.13;98.88;96608.64;106730;1281;22743;-78
2023/12/21 04:15:46;;;;;;;5.70;4.20;;;;;;;3.10;98.92;96605.80;106632;1284;22925;-77
2023/12/21 04:18:14;;;;;;;4.90;4.10;;;;;;;3.09;98.65;96610.27;106637;1272;22544;-76
2023/12/21 04:20:42;;;;;;;6.50;4.40;;;;;;;3.06;98.85;96604.94;106301;1274;24053;-76
2023/12/21 04:23:10;;;;;;;6.00;4.10;;;;;;;3.06;99.05;96601.64;106230;1283;23388;-76
2023/12/21 04:25:38;;;;;;;4.60;4.00;;;;;;;3.04;99.15;96593.17;106292;1283;24305;-76
2023/12/21 04:28:06;;;;;;;7.10;4.30;;;;;;;3.07;99.43;96591.46;106289;1279;24315;-77
2023/12/21 04:30:34;;;;;;;5.40;4.70;;;;;;;3.06;99.08;96586.09;106743;1271;22599;-78
2023/12/21 04:33:02;;;;;;;5.80;4.70;;;;;;;3.06;98.55;96586.02;106717;1268;24280;-76
2023/12/21 04:35:30;;;;;;;5.50;4.50;;;;;;;3.06;98.73;96577.73;106250;1282;23897;-77
2023/12/21 04:37:58;;;;;;;6.00;5.30;;;;;;;3.06;98.70;96568.80;106395;1283;23333;-77
2023/12/21 04:40:26;;;;;;;5.30;4.50;;;;;;;3.07;99.15;96564.36;106660;1283;23897;-77
2023/12/21 04:42:55;;;;;;;5.50;4.70;;;;;;;3.07;99.07;96556.06;106496;1280;23013;-77
2023/12/21 04:45:24;;;;;;;5.80;4.70;;;;;;;3.07;98.84;96549.55;106620;1271;25307;-77
2023/12/21 04:47:52;;;;;;;5.30;4.30;;;;;;;3.08;98.73;96544.44;106652;1284;22543;-77
2023/12/21 04:50:20;;;;;;;5.50;4.60;;;;;;;3.12;98.97;96539.30;106329;1284;25442;-78
2023/12/21 04:52:49;;;;;;;5.10;4.60;;;;;;;3.15;98.85;96531.11;106320;1273;22555;-77
2023/12/21 04:55:18;;;;;;;6.70;4.90;;;;;;;3.17;98.65;96532.41;106299;1284;25311;-75
2023/12/21 04:57:46;;;;;;;7.10;5.40;;;;;;;3.20;98.11;96537.92;106214;1271;22569;-76
2023/12/21 05:00:14;;;;;;;5.50;4.20;;;;;;;3.26;98.18;96531.58;106251;1281;22546;-76
2023/12/21 05:02:42;;;;;;;5.50;3.80;;;;;;;3.30;98.69;96523.86;106357;1277;25350;-76
2023/12/21 05:05:10;;;;;;;6.00;3.80;;;;;;;3.35;97.94;96520.50;106265;1266;22555;-78
2023/12/21 05:07:38;;;;;;;5.10;4.30;;;;;;;3.39;97.78;96525.56;106319;1281;22645;-77
2023/12/21 05:10:06;;;;;;;4.20;3.60;;;;;;;3.41;97.57;96514.18;106237;1283;24277;-77
2023/12/21 05:12:34;;;;;;;4.60;4.00;;;;;;;3.46;97.70;96508.00;106244;1273;24275;-76
2023/12/21 05:15:03;;;;;;;4.60;4.10;;;;;;;3.51;97.93;96498.17;106684;1269;22551;-77
2023/12/21 05:17:31;;;;;;;10.80;6.90;;;;;;;3.53;97.65;96490.85;106277;1283;26321;-76
2023/12/21 05:19:59;;;;;;;9.10;6.80;;;;;;;3.56;97.28;96498.16;106280;1281;22548;-76
2023/12/21 05:22:27;;;;;;;6.30;5.30;;;;;;;3.59;97.01;96487.48;106247;1283;22536;-77
2023/12/21 05:24:55;;;;;;;10.00;6.60;;;;;;;3.64;97.53;96484.25;106208;1284;22680;-77
2023/12/21 05:27:23;;;;;;;7.50;6.40;;;;;;;3.65;97.51;96477.65;106216;1276;24171;-76
2023/12/21 05:29:51;;;;;;;14.00;10.60;;;;;;;3.66;97.16;96481.69;106701;1283;22614;-78
2023/12/21 05:32:19;;;;;;;5.90;5.30;;;;;;;3.64;97.19;96473.38;106779;1270;22539;-76
2023/12/21 05:34:47;;;;;;;6.50;5.80;;;;;;;3.66;97.46;96466.77;106302;1284;25439;-77
2023/12/21 05:37:15;;;;;;;9.60;8.70;;;;;;;3.69;97.98;96463.77;106286;1276;23900;-77
2023/12/21 05:39:47;;;;;;;9.70;8.70;;;;;;;3.69;97.62;96465.59;106557;1271;24228;-77
2023/12/21 05:42:16;;;;;;;6.90;6.20;;;;;;;3.66;97.88;96461.48;106507;1283;23981;-76
2023/12/21 05:44:43;;;;;;;7.80;7.00;;;;;;;3.62;98.31;96458.66;106305;1276;23551;-77
2023/12/21 05:47:11;;;;;;;9.50;8.50;;;;;;;3.61;99.14;96453.23;106590;1263;22558;-78
2023/12/21 05:49:39;;;;;;;7.40;6.60;;;;;;;3.60;99.52;96461.67;106646;1272;22548;-77
2023/12/21 05:52:07;;;;;;;9.70;8.60;;;;;;;3.54;99.76;96457.98;106617;1284;25542;-76
2023/12/21 05:54:35;;;;;;;5.70;5.10;;;;;;;3.50;99.85;96459.80;106277;1284;22563;-77
2023/12/21 05:57:04;;;;;;;8.30;7.20;;;;;;;3.47;100.00;96456.80;106286;1269;24363;-77
2023/12/21 05:59:32;;;;;;;5.80;5.00;;;;;;;3.43;100.00;96455.05;106299;1272;25396;-77
2023/12/21 06:02:00;;;;;;;8.20;7.40;;;;;;;3.38;100.00;96452.13;106402;1283;22552;-77
2023/12/21 06:04:28;;;;;;;10.20;9.20;;;;;;;3.32;100.00;96445.09;106364;1270;24320;-77
2023/12/21 06:06:56;;;;;;;9.20;8.20;;;;;;;3.30;100.00;96440.31;106373;1260;22644;-78
2023/12/21 06:09:25;;;;;;;10.50;7.80;;;;;;;3.31;100.00;96434.08;106430;1273;22574;-78
2023/12/21 06:11:54;;;;;;;12.30;11.20;;;;;;;3.30;100.00;96438.92;106423;1270;22576;-77
2023/12/21 06:14:22;;;;;;;11.50;10.20;;;;;;;3.28;100.00;96431.67;106377;1271;23982;-76
2023/12/21 06:16:50;;;;;;;7.10;6.40;;;;;;;3.26;100.00;96423.98;106389;1277;25474;-76
2023/12/21 06:19:18;;;;;;;6.80;5.20;;;;;;;3.25;100.00;96427.23;106450;1283;23923;-77
2023/12/21 06:21:46;;;;;;;5.80;4.80;;;;;;;3.26;100.00;96427.64;106445;1280;22660;-76
2023/12/21 06:24:15;;;;;;;8.90;7.80;;;;;;;3.27;100.00;96432.00;106439;1283;24228;-74
2023/12/21 06:26:43;;;;;;;6.80;5.60;;;;;;;3.25;100.00;96429.59;106790;1273;22742;-76
2023/12/21 06:29:11;;;;;;;10.40;9.40;;;;;;;3.20;100.00;96433.59;106453;1284;24381;-77
2023/12/21 06:31:39;;;;;;;11.80;10.70;;;;;;;3.17;100.00;96433.88;106893;1280;22713;-78
2023/12/21 06:34:07;;;;;;;11.00;9.90;;;;;;;3.16;100.00;96434.17;106595;1283;22498;-77
2023/12/21 06:36:36;;;;;;;8.50;7.30;;;;;;;3.16;100.00;96439.95;106394;1282;25263;-78
2023/12/21 06:39:03;;;;;;;10.60;9.60;;;;;;;3.15;100.00;96439.88;106367;1269;22553;-76
2023/12/21 06:41:31;;;;;;;9.30;8.40;;;;;;;3.10;100.00;96437.81;106326;1283;22547;-78
2023/12/21 06:43:59;;;;;;;7.90;7.10;;;;;;;3.09;100.00;96436.87;106731;1271;24062;-77
2023/12/21 06:46:27;;;;;;;9.80;8.90;;;;;;;3.08;100.00;96442.05;106653;1277;22558;-77
2023/12/21 06:48:55;;;;;;;10.00;9.00;;;;;;;3.07;100.00;96432.95;106199;1264;22572;-77
2023/12/21 06:51:23;;;;;;;14.90;13.60;;;;;;;3.04;100.00;96434.48;106311;1276;23866;-77
2023/12/21 06:53:51;;;;;;;12.80;11.50;;;;;;;3.01;100.00;96435.16;106276;1283;25432;-77
2023/12/21 06:56:19;;;;;;;18.00;16.20;;;;;;;2.99;100.00;96435.61;106271;1272;24229;-77
2023/12/21 06:59:02;;;;;;;20.40;18.50;;;;;;;2.99;100.00;96433.91;106182;1283;22543;-78
2023/12/21 07:01:30;;;;;;;8.90;8.10;;;;;;;2.98;100.00;96428.97;106714;1274;22565;-77
2023/12/21 07:03:58;;;;;;;13.60;12.50;;;;;;;2.97;100.00;96425.46;106793;1272;26732;-77
2023/12/21 07:06:27;;;;;;;13.20;12.10;;;;;;;2.99;100.00;96428.05;106744;1276;26541;-77
2023/12/21 07:08:55;;;;;;;11.30;10.30;;;;;;;3.00;100.00;96421.12;106288;1277;22904;-76
2023/12/21 07:11:23;;;;;;;20.40;18.70;;;;;;;3.05;100.00;96424.45;106736;1276;23023;-78
2023/12/21 07:13:51;;;;;;;17.60;16.10;;;;;;;3.06;100.00;96423.33;106759;1270;24111;-78
2023/12/21 07:16:19;;;;;;;12.60;11.30;;;;;;;3.04;100.00;96424.42;106666;1283;24415;-76
2023/12/21 07:18:47;;;;;;;17.00;15.50;;;;;;;3.06;100.00;96424.56;106317;1276;22630;-78
2023/12/21 07:21:15;;;;;;;21.90;13.90;;;;;;;3.08;100.00;96428.88;106655;1272;22621;-77
2023/12/21 07:23:43;;;;;;;15.90;14.30;;;;;;;3.06;100.00;96418.54;106314;1261;22543;-77
2023/12/21 07:26:11;;;;;;;13.40;12.00;;;;;;;3.08;100.00;96422.29;106332;1276;22555;-76
2023/12/21 07:28:40;;;;;;;12.20;11.00;;;;;;;3.07;100.00;96424.49;106320;1276;23928;-76
2023/12/21 07:31:11;;;;;;;8.60;7.30;;;;;;;3.05;100.00;96426.48;106433;1270;23280;-79
2023/12/21 07:33:39;;;;;;;9.10;8.20;;;;;;;3.03;100.00;96423.21;106680;1273;22575;-77
2023/12/21 07:36:07;;;;;;;11.60;10.50;;;;;;;3.01;100.00;96415.58;106675;1270;23254;-76
2023/12/21 07:38:37;;;;;;;7.10;5.30;;;;;;;2.97;100.00;96418.02;106392;1280;24373;-78
2023/12/21 07:41:07;;;;;;;6.50;5.80;;;;;;;2.92;100.00;96414.23;106687;1276;24759;-76
2023/12/21 07:43:37;;;;;;;6.90;5.70;;;;;;;2.85;100.00;96418.64;106330;1270;24385;-76
2023/12/21 07:46:05;;;;;;;6.60;5.90;;;;;;;2.81;100.00;96416.79;106335;1272;22537;-78
2023/12/21 07:48:36;;;;;;;6.90;6.20;;;;;;;2.78;100.00;96424.73;106653;1271;25546;-78
2023/12/21 07:51:05;;;;;;;8.50;6.80;;;;;;;2.74;100.00;96414.84;106685;1272;25356;-78
2023/12/21 07:53:33;;;;;;;11.00;10.00;;;;;;;2.75;100.00;96412.92;106688;1273;24228;-78
2023/12/21 07:56:02;;;;;;;22.90;20.90;;;;;;;2.72;100.00;96412.30;106598;1269;25319;-78
2023/12/21 07:58:31;;;;;;;9.90;8.90;;;;;;;2.73;100.00;96412.73;106652;1283;22613;-78
2023/12/21 08:00:59;;;;;;;8.30;7.50;;;;;;;2.74;100.00;96422.77;106708;1270;23094;-77
2023/12/21 08:03:27;;;;;;;10.50;9.60;;;;;;;2.73;100.00;96415.23;106642;1276;24964;-78
2023/12/21 08:05:55;;;;;;;6.80;6.00;;;;;;;2.69;100.00;96411.11;106576;1273;22583;-79
2023/12/21 08:08:23;;;;;;;8.20;7.40;;;;;;;2.67;100.00;96409.66;106318;1284;26663;-77
2023/12/21 08:10:51;;;;;;;7.70;7.00;;;;;;;2.67;100.00;96420.25;106613;1283;22556;-77
2023/12/21 08:13:19;;;;;;;6.20;5.30;;;;;;;2.68;100.00;96424.70;106216;1283;24356;-77
2023/12/21 08:15:47;;;;;;;6.60;5.60;;;;;;;2.64;100.00;96411.61;106234;1269;25472;-76
2023/12/21 08:18:16;;;;;;;8.60;7.80;;;;;;;2.61;100.00;96402.60;106322;1274;22589;-77
2023/12/21 08:20:47;;;;;;;12.50;11.40;;;;;;;2.61;100.00;96403.46;106698;1266;23022;-76
2023/12/21 08:23:16;;;;;;;13.40;12.20;;;;;;;2.61;100.00;96396.27;106399;1268;22956;-78
2023/12/21 08:25:44;;;;;;;14.20;12.90;;;;;;;2.63;100.00;96393.17;106332;1283;24333;-78
2023/12/21 08:28:12;;;;;;;18.40;16.70;;;;;;;2.62;100.00;96392.76;106741;1272;23131;-78
2023/12/21 08:30:43;;;;;;;18.30;16.70;;;;;;;2.66;100.00;96388.83;106315;1271;25316;-78
2023/12/21 08:33:11;;;;;;;16.50;15.00;;;;;;;2.67;100.00;96378.70;106782;1283;22568;-78
2023/12/21 08:35:39;;;;;;;16.20;14.90;;;;;;;2.67;100.00;96364.13;106341;1269;22510;-79
2023/12/21 08:38:08;;;;;;;12.10;11.00;;;;;;;2.69;100.00;96359.95;106748;1283;22551;-78
2023/12/21 08:40:36;;;;;;;11.70;10.60;;;;;;;2.76;100.00;96352.42;106747;1268;24359;-78
2023/12/21 08:43:05;;;;;;;10.70;9.60;;;;;;;2.79;100.00;96355.05;106686;1271;24257;-78
2023/12/21 08:45:33;;;;;;;15.20;13.80;;;;;;;2.84;100.00;96346.09;106772;1271;22616;-78
2023/12/21 08:48:01;;;;;;;22.10;19.90;;;;;;;2.85;100.00;96338.48;106709;1273;22604;-78
2023/12/21 08:50:29;;;;;;;8.90;8.00;;;;;;;2.91;100.00;96337.96;106258;1279;25559;-78
2023/12/21 08:53:00;;;;;;;11.40;10.40;;;;;;;2.98;100.00;96334.36;106683;1283;23348;-78
2023/12/21 08:55:29;;;;;;;10.80;9.80;;;;;;;3.06;100.00;96332.49;106723;1272;24237;-78
2023/12/21 08:57:58;;;;;;;15.70;13.40;;;;;;;3.09;100.00;96324.34;106719;1275;22788;-78
2023/12/21 09:00:26;;;;;;;10.60;9.60;;;;;;;3.16;100.00;96322.91;106164;1284;25317;-78
2023/12/21 09:02:54;;;;;;;9.50;8.60;;;;;;;3.24;100.00;96317.05;106766;1271;25481;-78
2023/12/21 09:05:24;;;;;;;13.00;11.80;;;;;;;3.31;100.00;96305.85;106441;1273;24281;-78
2023/12/21 09:07:52;;;;;;;12.00;10.00;;;;;;;3.36;100.00;96290.08;106703;1272;25382;-76
2023/12/21 09:10:21;;;;;;;12.70;11.10;;;;;;;3.41;100.00;96284.23;106306;1269;22692;-77
2023/12/21 09:12:49;;;;;;;11.70;10.60;;;;;;;3.50;100.00;96270.73;106129;1284;22550;-77
2023/12/21 09:15:17;;;;;;;13.40;12.30;;;;;;;3.59;100.00;96258.85;106321;1269;22903;-77
2023/12/21 09:17:46;;;;;;;11.30;10.20;;;;;;;3.69;100.00;96250.48;107017;1270;22655;-77
2023/12/21 09:20:14;;;;;;;10.40;8.40;;;;;;;3.73;100.00;96230.63;106712;1283;22556;-78
2023/12/21 09:22:42;;;;;;;7.90;7.10;;;;;;;3.79;100.00;96223.06;106298;1283;22536;-77
2023/12/21 09:25:10;;;;;;;7.50;6.70;;;;;;;3.89;100.00;96205.87;106275;1283;23503;-77
2023/12/21 09:27:38;;;;;;;10.30;8.90;;;;;;;4.00;100.00;96201.08;106196;1283;22563;-77
2023/12/21 09:30:07;;;;;;;8.90;7.10;;;;;;;4.05;100.00;96197.08;106542;1265;23904;-78
2023/12/21 09:32:35;;;;;;;7.30;6.50;;;;;;;4.12;100.00;96185.30;106812;1270;22567;-77
2023/12/21 09:35:03;;;;;;;7.40;6.70;;;;;;;4.20;100.00;96186.30;106754;1283;22539;-77
2023/12/21 09:37:32;;;;;;;7.90;7.10;;;;;;;4.25;100.00;96173.15;106416;1280;24408;-77
2023/12/21 09:40:00;;;;;;;7.60;6.90;;;;;;;4.28;100.00;96164.90;106356;1283;24856;-78
2023/12/21 09:42:30;;;;;;;8.60;6.30;;;;;;;4.31;100.00;96160.41;106583;1275;24261;-76
2023/12/21 09:45:01;;;;;;;7.20;5.90;;;;;;;4.38;100.00;96162.51;106884;1260;23920;-76
2023/12/21 09:47:31;;;;;;;8.40;6.70;;;;;;;4.44;100.00;96153.30;107093;1283;22669;-78
2023/12/21 09:50:04;;;;;;;9.40;7.00;;;;;;;4.49;100.00;96148.13;106649;1283;25521;-78
2023/12/21 09:52:37;;;;;;;8.00;6.70;;;;;;;4.52;100.00;96150.89;106410;1283;124800;-77
2023/12/21 09:55:07;;;;;;;8.30;7.50;;;;;;;4.59;100.00;96153.29;106588;1284;24320;-76
2023/12/21 09:57:39;;;;;;;7.40;6.50;;;;;;;4.64;100.00;96136.10;106504;1283;22569;-78
2023/12/21 10:00:07;;;;;;;6.70;5.70;;;;;;;4.70;100.00;96132.13;106625;1283;22550;-76
2023/12/21 10:02:39;;;;;;;7.30;6.30;;;;;;;4.72;100.00;96135.05;106338;1273;24227;-79
2023/12/21 10:05:07;;;;;;;10.00;9.00;;;;;;;4.78;100.00;96121.50;106380;1276;22645;-76
2023/12/21 10:07:36;;;;;;;7.40;6.70;;;;;;;4.85;99.93;96125.81;106345;1283;22563;-77
2023/12/21 10:10:04;;;;;;;6.40;5.70;;;;;;;4.89;98.90;96125.50;106670;1281;22868;-78
2023/12/21 10:12:32;;;;;;;10.80;9.90;;;;;;;4.91;97.93;96114.14;106789;1268;22775;-77
2023/12/21 10:15:03;;;;;;;8.50;7.60;;;;;;;4.93;97.89;96105.64;106635;1269;22561;-77
2023/12/21 10:17:34;;;;;;;6.00;5.20;;;;;;;4.98;98.34;96097.36;106664;1269;22554;-77
2023/12/21 10:20:03;;;;;;;9.10;8.30;;;;;;;5.06;97.80;96097.44;106309;1270;25513;-77
2023/12/21 10:22:35;;;;;;;9.50;8.70;;;;;;;5.07;96.84;96085.71;106272;1261;23240;-76
2023/12/21 10:25:03;;;;;;;6.30;5.70;;;;;;;5.07;96.94;96080.22;106352;1277;22802;-75
2023/12/21 10:27:31;;;;;;;8.30;7.50;;;;;;;5.10;96.84;96064.17;106430;1283;22544;-76
2023/12/21 10:30:02;;;;;;;6.80;6.10;;;;;;;5.14;96.70;96059.25;106406;1280;22567;-77
2023/12/21 10:32:30;;;;;;;9.60;8.70;;;;;;;5.15;96.27;96046.84;106711;1283;22651;-76
2023/12/21 10:34:59;;;;;;;6.80;6.10;;;;;;;5.16;95.99;96042.59;106316;1277;22568;-77
2023/12/21 10:37:28;;;;;;;8.10;5.70;;;;;;;5.19;94.71;96027.39;106418;1283;25501;-77
2023/12/21 10:39:57;;;;;;;7.60;6.60;;;;;;;5.22;95.21;96029.55;106430;1268;25552;-77
2023/12/21 10:42:25;;;;;;;8.20;7.30;;;;;;;5.25;94.92;96017.93;106822;1276;22660;-76
2023/12/21 10:44:55;;;;;;;8.00;6.20;;;;;;;5.25;95.09;96010.58;106172;1283;25320;-77
2023/12/21 10:47:23;;;;;;;7.70;6.80;;;;;;;5.26;94.97;96012.02;106674;1268;23421;-77
2023/12/21 10:49:51;;;;;;;9.00;8.10;;;;;;;5.29;94.47;95994.81;106685;1270;25137;-77
2023/12/21 10:52:21;;;;;;;6.70;5.80;;;;;;;5.33;94.47;96000.58;106723;1273;22560;-77
2023/12/21 10:54:51;;;;;;;10.40;9.40;;;;;;;5.35;93.78;95984.05;106603;1278;26722;-77
2023/12/21 10:57:21;;;;;;;16.00;14.30;;;;;;;5.34;93.12;95956.15;106713;1281;24372;-77
2023/12/21 10:59:50;;;;;;;12.50;10.30;;;;;;;5.33;93.23;95955.86;106378;1277;22786;-77
2023/12/21 11:02:19;;;;;;;16.70;14.10;;;;;;;5.34;93.73;95950.11;106338;1271;22653;-76
2023/12/21 11:04:48;;;;;;;15.10;13.30;;;;;;;5.37;94.34;95946.76;106433;1273;24393;-77
2023/12/21 11:07:19;;;;;;;10.70;9.20;;;;;;;5.41;93.90;95943.55;106258;1268;22557;-76
2023/12/21 11:09:48;;;;;;;21.00;16.40;;;;;;;5.41;93.47;95935.77;106365;1283;25502;-76
2023/12/21 11:12:16;;;;;;;20.20;18.30;;;;;;;5.39;93.89;95931.67;106328;1271;23111;-76
2023/12/21 11:14:44;;;;;;;9.10;8.20;;;;;;;5.42;94.19;95921.48;106364;1283;25542;-76
2023/12/21 11:17:16;;;;;;;7.20;6.10;;;;;;;5.46;94.44;95918.23;106305;1283;22529;-76
2023/12/21 11:19:46;;;;;;;6.60;5.70;;;;;;;5.46;93.94;95910.44;106263;1273;22566;-77
2023/12/21 11:22:15;;;;;;;8.90;8.00;;;;;;;5.42;93.55;95895.33;106769;1283;25364;-77
2023/12/21 11:24:44;;;;;;;12.80;11.40;;;;;;;5.37;94.06;95892.98;106331;1271;23221;-77
2023/12/21 11:27:12;;;;;;;38.70;34.60;;;;;;;5.38;94.91;95886.17;106710;1283;22534;-77
2023/12/21 11:29:41;;;;;;;19.20;17.10;;;;;;;5.35;95.27;95882.36;106275;1271;22544;-78
2023/12/21 11:32:08;;;;;;;14.40;13.00;;;;;;;5.30;95.22;95875.62;106323;1272;25489;-78